Time;durP1;ratioP1;P1;durP2;ratioP2;P2;SDS_P1;SDS_P2;PMS_P1;PMS_P2;Temp;Humidity;BMP_temperature;BMP_pressure;BME280_temperature;BME280_humidity;BME280_pressure;Samples;Min_cycle;Max_cycle;Signal;HPM_P1;HPM_P2
2022/10/12 00:01:13;;;;;;;14.00;5.65;;;9.60;98.80;;;;;;5070934;28;20078;-72
2022/10/12 00:03:39;;;;;;;10.30;3.78;;;9.60;98.60;;;;;;5070777;28;20362;-74
2022/10/12 00:06:11;;;;;;;10.57;4.18;;;9.60;98.60;;;;;;5069830;28;20042;-74
2022/10/12 00:08:39;;;;;;;11.35;3.92;;;9.50;98.40;;;;;;5070039;28;20020;-74
2022/10/12 00:11:06;;;;;;;8.93;3.30;;;9.50;98.50;;;;;;5070134;28;20040;-72
2022/10/12 00:13:32;;;;;;;10.10;4.07;;;9.50;98.20;;;;;;5070930;28;20024;-73
2022/10/12 00:16:03;;;;;;;8.52;3.42;;;9.50;98.60;;;;;;5070659;28;20451;-74
2022/10/12 00:18:30;;;;;;;10.13;3.60;;;9.50;98.70;;;;;;5070790;28;20035;-73
2022/10/12 00:21:04;;;;;;;9.88;3.58;;;9.50;98.50;;;;;;5070790;28;20032;-74
2022/10/12 00:23:30;;;;;;;9.23;3.50;;;9.50;98.50;;;;;;5070674;28;20028;-73
2022/10/12 00:26:01;;;;;;;7.68;3.15;;;9.50;98.40;;;;;;5071177;28;20021;-74
2022/10/12 00:28:27;;;;;;;10.65;3.72;;;9.40;98.50;;;;;;5068647;28;20421;-74
2022/10/12 00:30:53;;;;;;;15.45;3.95;;;9.30;98.60;;;;;;5069328;28;20121;-73
2022/10/12 00:33:18;;;;;;;12.57;4.70;;;9.40;98.70;;;;;;5070427;28;20124;-74
2022/10/12 00:35:44;;;;;;;11.18;3.50;;;9.40;98.80;;;;;;5069387;28;20036;-73
2022/10/12 00:38:10;;;;;;;9.63;3.50;;;9.40;98.80;;;;;;5070936;28;20044;-73
2022/10/12 00:40:36;;;;;;;11.57;3.13;;;9.40;98.80;;;;;;5070432;28;20032;-73
2022/10/12 00:43:02;;;;;;;12.18;3.22;;;9.30;98.60;;;;;;5070810;28;20047;-72
2022/10/12 00:45:28;;;;;;;9.10;3.28;;;9.30;98.50;;;;;;5070786;28;20124;-73
2022/10/12 00:47:59;;;;;;;7.22;2.80;;;9.20;98.50;;;;;;5070658;28;20052;-74
2022/10/12 00:50:34;;;;;;;12.48;3.45;;;9.20;98.70;;;;;;5070627;28;20592;-72
2022/10/12 00:53:10;;;;;;;11.98;3.45;;;9.20;98.70;;;;;;5071138;28;20013;-74
2022/10/12 00:55:39;;;;;;;8.23;2.95;;;9.30;98.70;;;;;;5070626;28;20334;-73
2022/10/12 00:58:07;;;;;;;13.60;3.55;;;9.20;98.80;;;;;;5070766;28;20111;-75
2022/10/12 01:00:34;;;;;;;7.85;2.92;;;9.20;98.80;;;;;;5070602;28;20040;-74
2022/10/12 01:03:00;;;;;;;24.13;3.20;;;9.20;98.80;;;;;;5070718;28;20033;-74
2022/10/12 01:05:26;;;;;;;20.77;3.03;;;9.30;98.80;;;;;;5070680;28;20103;-74
2022/10/12 01:07:52;;;;;;;18.20;3.17;;;9.20;98.50;;;;;;5070894;28;20359;-74
2022/10/12 01:10:18;;;;;;;10.80;3.67;;;9.20;98.60;;;;;;5070379;28;20037;-74
2022/10/12 01:12:47;;;;;;;8.57;2.90;;;9.10;98.50;;;;;;5070411;28;20048;-73
2022/10/12 01:15:13;;;;;;;15.90;3.30;;;9.20;98.60;;;;;;5070286;28;20098;-74
2022/10/12 01:17:47;;;;;;;7.93;2.97;;;9.20;98.50;;;;;;5070499;28;20458;-73
2022/10/12 01:20:19;;;;;;;15.85;3.58;;;9.20;98.50;;;;;;5069496;28;20470;-73
2022/10/12 01:22:59;;;;;;;10.82;2.90;;;9.20;98.70;;;;;;5070404;28;20044;-74
2022/10/12 01:26:09;;;;;;;13.68;3.22;;;9.20;98.70;;;;;;5070429;28;20036;-74
2022/10/12 01:28:43;;;;;;;9.50;2.58;;;9.10;98.50;;;;;;5059944;28;20033;-74
2022/10/12 01:31:48;;;;;;;8.88;2.60;;;9.10;98.70;;;;;;5070378;28;20040;-73
2022/10/12 01:34:33;;;;;;;13.65;3.13;;;9.00;98.80;;;;;;5027597;28;20029;-73
2022/10/12 01:37:24;;;;;;;11.00;2.50;;;9.00;98.90;;;;;;5067957;28;20025;-73
2022/10/12 01:39:56;;;;;;;11.10;3.22;;;9.00;98.80;;;;;;5070597;28;20028;-74
2022/10/12 01:42:31;;;;;;;9.35;2.55;;;9.00;98.70;;;;;;5073746;28;20115;-74
2022/10/12 01:45:03;;;;;;;12.88;3.30;;;9.00;98.70;;;;;;5073928;28;20090;-73
2022/10/12 01:47:29;;;;;;;14.73;2.97;;;9.00;98.70;;;;;;5072598;28;20174;-74
2022/10/12 01:49:56;;;;;;;10.93;2.70;;;8.90;98.70;;;;;;5074302;28;20074;-73
2022/10/12 01:52:45;;;;;;;15.25;3.10;;;8.90;98.60;;;;;;5073593;28;20105;-72
2022/10/12 01:55:18;;;;;;;9.02;2.72;;;8.90;98.60;;;;;;5073710;28;20036;-73
2022/10/12 01:58:02;;;;;;;13.40;2.90;;;9.00;98.80;;;;;;5072322;28;20025;-73
2022/10/12 02:00:33;;;;;;;8.98;2.63;;;9.00;98.70;;;;;;5073585;28;20040;-74
2022/10/12 02:03:22;;;;;;;8.50;2.90;;;9.00;98.70;;;;;;5073203;28;20028;-72
2022/10/12 02:05:55;;;;;;;7.57;2.80;;;8.90;98.70;;;;;;5073619;28;20381;-74
2022/10/12 02:08:46;;;;;;;91.78;41.40;;;9.00;98.70;;;;;;5073766;28;20024;-74
2022/10/12 02:11:14;;;;;;;25.60;11.90;;;9.00;98.60;;;;;;5072134;28;20193;-74
2022/10/12 02:13:47;;;;;;;11.80;4.07;;;8.90;98.50;;;;;;5073097;28;20032;-73
2022/10/12 02:16:17;;;;;;;9.70;2.97;;;8.80;98.60;;;;;;5073103;28;20032;-73
2022/10/12 02:18:46;;;;;;;17.80;3.35;;;8.70;98.70;;;;;;5071788;28;20032;-74
2022/10/12 02:21:17;;;;;;;7.80;2.70;;;8.70;98.70;;;;;;5072874;28;20047;-74
2022/10/12 02:23:45;;;;;;;9.80;2.67;;;8.70;98.80;;;;;;5073018;28;20031;-73
2022/10/12 02:26:13;;;;;;;9.75;2.88;;;8.60;98.70;;;;;;5073753;28;20121;-73
2022/10/12 02:28:40;;;;;;;10.45;3.40;;;8.70;98.80;;;;;;5073274;28;20040;-74
2022/10/12 02:31:31;;;;;;;9.02;3.05;;;8.60;98.70;;;;;;5073114;28;20107;-74
2022/10/12 02:34:12;;;;;;;9.02;2.70;;;8.60;98.70;;;;;;5072872;28;20389;-74
2022/10/12 02:36:51;;;;;;;9.00;2.30;;;8.60;98.80;;;;;;5072804;28;20331;-73
2022/10/12 02:39:24;;;;;;;8.23;2.55;;;8.60;98.70;;;;;;5072740;28;20358;-73
2022/10/12 02:41:54;;;;;;;7.88;2.35;;;8.50;98.80;;;;;;5072998;28;20036;-73
2022/10/12 02:44:25;;;;;;;6.97;2.25;;;8.60;98.90;;;;;;5073138;28;20058;-74
2022/10/12 02:46:53;;;;;;;8.52;2.40;;;8.50;98.80;;;;;;5072699;28;20093;-74
2022/10/12 02:49:23;;;;;;;7.45;2.78;;;8.60;98.70;;;;;;5071402;28;20028;-74
2022/10/12 02:51:49;;;;;;;27.88;4.75;;;8.60;98.60;;;;;;5071661;28;20028;-73
2022/10/12 02:54:15;;;;;;;10.35;2.65;;;8.60;98.60;;;;;;5071568;28;20373;-75
2022/10/12 02:56:43;;;;;;;8.65;2.67;;;8.50;98.50;;;;;;5072383;28;20025;-74
2022/10/12 02:59:09;;;;;;;11.70;3.25;;;8.50;98.60;;;;;;5072961;28;20024;-74
2022/10/12 03:01:36;;;;;;;5.38;2.67;;;8.40;98.80;;;;;;5071238;28;20032;-74
2022/10/12 03:04:01;;;;;;;9.35;2.90;;;8.40;98.70;;;;;;5072016;28;20032;-73
2022/10/12 03:06:27;;;;;;;9.52;2.70;;;8.40;98.90;;;;;;5070954;28;20481;-74
2022/10/12 03:08:55;;;;;;;17.27;3.38;;;8.40;98.80;;;;;;5072022;28;20028;-74
2022/10/12 03:11:22;;;;;;;13.70;3.55;;;8.40;98.60;;;;;;5072229;28;20041;-75
2022/10/12 03:13:51;;;;;;;20.02;3.72;;;8.40;98.70;;;;;;5070874;28;20090;-74
2022/10/12 03:16:17;;;;;;;9.07;3.05;;;8.40;98.70;;;;;;5070844;28;20029;-74
2022/10/12 03:18:42;;;;;;;10.93;2.97;;;8.40;98.90;;;;;;5071798;28;20090;-74
2022/10/12 03:21:09;;;;;;;8.70;2.40;;;8.40;99.00;;;;;;5071783;28;20059;-73
2022/10/12 03:23:35;;;;;;;8.70;2.53;;;8.40;98.90;;;;;;5071797;28;20028;-74
2022/10/12 03:26:01;;;;;;;11.52;2.75;;;8.40;99.00;;;;;;5072303;28;20055;-74
2022/10/12 03:28:27;;;;;;;9.77;3.25;;;8.40;98.80;;;;;;5071238;28;20489;-74
2022/10/12 03:30:53;;;;;;;10.95;3.10;;;8.40;98.90;;;;;;5070985;28;20366;-74
2022/10/12 03:33:19;;;;;;;10.57;2.45;;;8.40;98.90;;;;;;5070952;28;20043;-74
2022/10/12 03:35:45;;;;;;;10.60;3.08;;;8.40;99.10;;;;;;5070886;28;20242;-74
2022/10/12 03:38:11;;;;;;;15.15;3.03;;;8.50;99.20;;;;;;5071161;28;20082;-74
2022/10/12 03:40:38;;;;;;;12.93;2.97;;;8.40;99.00;;;;;;5071972;28;20032;-72
2022/10/12 03:43:03;;;;;;;15.77;3.60;;;8.40;99.20;;;;;;5070394;28;20124;-74
2022/10/12 03:45:29;;;;;;;7.68;2.63;;;8.40;99.10;;;;;;5070401;28;20116;-73
2022/10/12 03:47:55;;;;;;;16.17;3.47;;;8.40;99.20;;;;;;5071412;28;20093;-74
2022/10/12 03:50:21;;;;;;;10.82;3.33;;;8.40;99.30;;;;;;5071905;28;20029;-74
2022/10/12 03:52:46;;;;;;;14.48;2.97;;;8.40;98.90;;;;;;5071311;28;20094;-73
2022/10/12 03:55:12;;;;;;;11.90;2.70;;;8.40;98.90;;;;;;5070303;28;20463;-74
2022/10/12 03:57:38;;;;;;;9.00;3.03;;;8.40;98.80;;;;;;5071344;28;20040;-75
2022/10/12 04:00:05;;;;;;;8.88;2.67;;;8.30;99.00;;;;;;5070427;28;20044;-73
2022/10/12 04:02:30;;;;;;;15.38;3.53;;;8.30;99.10;;;;;;5070163;28;20425;-73
2022/10/12 04:04:56;;;;;;;7.47;2.90;;;8.30;99.00;;;;;;5071754;28;20068;-73
2022/10/12 04:07:22;;;;;;;9.45;2.70;;;8.40;99.00;;;;;;5071416;28;20032;-74
2022/10/12 04:09:47;;;;;;;8.20;2.80;;;8.40;99.10;;;;;;5069824;28;20037;-74
2022/10/12 04:12:13;;;;;;;20.17;3.30;;;8.40;99.20;;;;;;5070669;28;20251;-74
2022/10/12 04:14:39;;;;;;;8.95;2.78;;;8.30;98.90;;;;;;5070885;28;20029;-75
2022/10/12 04:17:05;;;;;;;8.88;2.42;;;8.40;99.20;;;;;;5070769;28;20036;-73
2022/10/12 04:19:30;;;;;;;10.55;3.00;;;8.30;99.40;;;;;;5069910;28;20044;-75
2022/10/12 04:21:56;;;;;;;7.95;2.58;;;8.30;99.00;;;;;;5069685;28;20121;-73
2022/10/12 04:24:22;;;;;;;9.18;2.72;;;8.30;99.10;;;;;;5070701;28;20033;-73
2022/10/12 04:26:47;;;;;;;18.02;3.10;;;8.30;98.90;;;;;;5071107;28;20036;-74
2022/10/12 04:29:13;;;;;;;12.45;3.22;;;8.30;99.00;;;;;;5071626;28;20032;-74
2022/10/12 04:31:39;;;;;;;14.15;3.10;;;8.30;99.00;;;;;;5071185;28;20043;-73
2022/10/12 04:34:05;;;;;;;15.65;2.88;;;8.30;99.00;;;;;;5070009;28;20041;-73
2022/10/12 04:36:31;;;;;;;14.60;2.92;;;8.30;99.10;;;;;;5071230;28;20039;-73
2022/10/12 04:38:56;;;;;;;9.07;2.67;;;8.20;99.10;;;;;;5071120;28;20097;-73
2022/10/12 04:41:22;;;;;;;10.00;2.85;;;8.30;99.30;;;;;;5070899;28;20458;-73
2022/10/12 04:43:47;;;;;;;10.38;2.65;;;8.30;99.20;;;;;;5071595;28;20103;-73
2022/10/12 04:46:14;;;;;;;19.27;8.35;;;8.40;99.20;;;;;;5070633;28;20025;-74
2022/10/12 04:48:39;;;;;;;89.72;41.75;;;8.30;99.20;;;;;;5070930;28;20059;-72
2022/10/12 04:51:05;;;;;;;15.48;5.35;;;8.30;99.00;;;;;;5071136;28;20052;-73
2022/10/12 04:53:31;;;;;;;10.77;3.55;;;8.20;98.80;;;;;;5069989;28;20315;-73
2022/10/12 04:56:00;;;;;;;7.68;2.60;;;8.20;98.60;;;;;;5071582;28;20063;-74
2022/10/12 04:58:26;;;;;;;9.70;3.30;;;8.10;98.60;;;;;;5055842;28;20498;-74
2022/10/12 05:00:52;;;;;;;9.77;2.45;;;8.10;99.10;;;;;;5055040;28;20124;-74
2022/10/12 05:03:17;;;;;;;10.15;2.72;;;8.30;99.00;;;;;;5058025;28;20029;-74
2022/10/12 05:05:44;;;;;;;12.07;2.42;;;8.10;99.10;;;;;;5070036;28;20085;-75
2022/10/12 05:08:09;;;;;;;12.10;2.90;;;8.20;99.00;;;;;;5056221;28;20017;-75
2022/10/12 05:10:35;;;;;;;11.27;2.58;;;8.10;99.10;;;;;;5054254;28;20029;-75
2022/10/12 05:13:01;;;;;;;5.85;2.78;;;8.10;99.10;;;;;;5073045;28;20041;-75
2022/10/12 05:15:27;;;;;;;12.23;2.78;;;8.10;99.10;;;;;;5077346;28;20025;-76
2022/10/12 05:17:52;;;;;;;10.90;2.88;;;8.10;99.10;;;;;;5061373;28;20043;-76
2022/10/12 05:20:18;;;;;;;8.43;2.65;;;8.10;99.10;;;;;;5062259;28;20021;-74
2022/10/12 05:22:44;;;;;;;9.25;2.50;;;8.10;99.20;;;;;;5058677;28;20044;-75
2022/10/12 05:25:09;;;;;;;7.70;2.70;;;8.10;99.20;;;;;;5063337;28;20573;-75
2022/10/12 05:27:35;;;;;;;8.82;2.92;;;8.20;99.10;;;;;;5059408;28;20040;-75
2022/10/12 05:30:01;;;;;;;8.57;2.80;;;8.10;99.00;;;;;;5055435;28;20090;-76
2022/10/12 05:32:26;;;;;;;7.35;2.67;;;8.20;99.00;;;;;;5055295;28;20103;-75
2022/10/12 05:34:53;;;;;;;12.25;3.05;;;8.10;99.00;;;;;;5054872;28;20032;-75
2022/10/12 05:37:19;;;;;;;9.38;3.10;;;8.30;99.10;;;;;;5053635;28;20035;-76
2022/10/12 05:39:45;;;;;;;8.63;2.85;;;8.10;98.90;;;;;;5055574;28;20116;-75
2022/10/12 05:42:11;;;;;;;8.23;2.95;;;8.10;99.00;;;;;;5054342;28;20017;-76
2022/10/12 05:44:37;;;;;;;9.65;3.25;;;8.10;98.90;;;;;;5052933;28;20037;-75
2022/10/12 05:47:02;;;;;;;19.17;7.03;;;8.20;98.90;;;;;;5053361;28;20036;-76
2022/10/12 05:49:29;;;;;;;17.65;4.22;;;8.20;98.80;;;;;;5053158;28;20113;-76
2022/10/12 05:51:55;;;;;;;21.25;8.38;;;8.20;98.80;;;;;;5053965;28;20041;-75
2022/10/12 05:54:21;;;;;;;9.70;3.67;;;8.20;98.90;;;;;;5053984;28;20051;-74
2022/10/12 05:56:46;;;;;;;9.85;3.83;;;8.20;99.20;;;;;;5054065;28;20032;-74
2022/10/12 05:59:12;;;;;;;14.48;3.40;;;8.20;99.00;;;;;;5069795;28;20036;-75
2022/10/12 06:01:38;;;;;;;14.02;3.38;;;8.10;98.30;;;;;;5054196;28;20067;-76
2022/10/12 06:04:04;;;;;;;9.35;2.95;;;8.10;99.00;;;;;;5069189;28;20516;-75
2022/10/12 06:06:29;;;;;;;10.65;2.88;;;8.10;99.10;;;;;;5052425;28;20040;-75
2022/10/12 06:08:55;;;;;;;12.52;3.20;;;8.10;99.00;;;;;;5053662;28;20032;-76
2022/10/12 06:11:21;;;;;;;12.25;3.80;;;8.10;99.20;;;;;;5053665;28;20045;-75
2022/10/12 06:13:46;;;;;;;12.48;3.55;;;8.20;99.50;;;;;;5053304;28;20032;-74
2022/10/12 06:16:12;;;;;;;11.48;3.50;;;8.20;99.50;;;;;;5053063;28;20044;-76
2022/10/12 06:18:38;;;;;;;17.35;3.17;;;8.20;99.50;;;;;;5053755;28;20155;-74
2022/10/12 06:21:03;;;;;;;12.82;3.35;;;8.20;99.40;;;;;;5053504;28;20033;-73
2022/10/12 06:23:29;;;;;;;13.43;4.15;;;8.20;99.40;;;;;;5053589;28;20025;-75
2022/10/12 06:25:55;;;;;;;10.23;3.28;;;8.20;99.30;;;;;;5053674;28;20478;-75
2022/10/12 06:28:20;;;;;;;10.15;3.65;;;8.30;99.30;;;;;;5054639;28;20112;-76
2022/10/12 06:30:53;;;;;;;14.63;3.35;;;8.30;99.40;;;;;;5053809;28;20470;-71
2022/10/12 06:33:19;;;;;;;8.57;3.13;;;8.30;99.30;;;;;;5052592;28;20392;-73
2022/10/12 06:35:44;;;;;;;17.45;3.65;;;8.30;99.40;;;;;;5051619;28;20446;-73
2022/10/12 06:38:10;;;;;;;14.15;3.08;;;8.30;99.40;;;;;;5069575;28;20049;-74
2022/10/12 06:40:36;;;;;;;15.13;3.38;;;8.30;99.50;;;;;;5068612;28;20111;-73
2022/10/12 06:43:01;;;;;;;14.18;4.25;;;8.40;99.50;;;;;;5051888;28;20033;-75
2022/10/12 06:45:28;;;;;;;15.07;5.13;;;8.40;99.50;;;;;;5053238;28;20090;-74
2022/10/12 06:47:54;;;;;;;13.02;3.58;;;8.50;99.30;;;;;;5052798;28;20029;-74
2022/10/12 06:50:20;;;;;;;8.70;3.15;;;8.50;99.50;;;;;;5051830;28;20033;-73
2022/10/12 06:52:46;;;;;;;8.60;3.17;;;8.50;99.50;;;;;;5052425;28;20441;-72
2022/10/12 06:55:12;;;;;;;11.75;3.22;;;8.50;99.40;;;;;;5051493;28;20421;-74
2022/10/12 06:57:38;;;;;;;10.80;3.00;;;8.50;99.40;;;;;;5052918;28;20033;-76
2022/10/12 07:00:05;;;;;;;10.65;3.85;;;8.50;99.50;;;;;;5052870;28;20091;-74
2022/10/12 07:02:32;;;;;;;17.23;4.30;;;8.60;99.60;;;;;;5052466;28;20108;-75
2022/10/12 07:04:57;;;;;;;14.07;3.70;;;8.60;99.50;;;;;;5053144;28;20354;-74
2022/10/12 07:07:23;;;;;;;10.27;3.70;;;8.70;99.60;;;;;;5068280;28;20112;-75
2022/10/12 07:09:50;;;;;;;10.93;3.80;;;8.70;99.80;;;;;;5067974;28;20128;-74
2022/10/12 07:12:16;;;;;;;13.17;3.50;;;8.80;99.80;;;;;;5052571;28;20056;-76
2022/10/12 07:14:42;;;;;;;14.70;4.05;;;8.90;99.70;;;;;;5051085;28;20045;-78
2022/10/12 07:17:08;;;;;;;8.38;2.97;;;8.90;99.80;;;;;;5052879;28;20478;-75
2022/10/12 07:19:34;;;;;;;13.80;3.35;;;8.90;99.80;;;;;;5052658;28;20131;-76
2022/10/12 07:22:00;;;;;;;10.85;3.75;;;9.00;99.80;;;;;;5052253;28;20111;-73
2022/10/12 07:24:34;;;;;;;13.20;3.88;;;9.00;99.90;;;;;;5052073;28;20322;-74
2022/10/12 07:27:00;;;;;;;10.70;3.70;;;9.10;99.80;;;;;;5067527;28;20051;-73
2022/10/12 07:29:26;;;;;;;14.88;3.67;;;9.20;99.80;;;;;;5051968;28;20664;-71
2022/10/12 07:31:51;;;;;;;12.43;3.35;;;9.20;99.60;;;;;;5052167;28;20021;-73
2022/10/12 07:34:17;;;;;;;12.93;4.50;;;9.30;99.70;;;;;;5051699;28;20029;-72
2022/10/12 07:36:43;;;;;;;11.82;3.72;;;9.30;99.50;;;;;;5051539;28;20485;-74
2022/10/12 07:39:09;;;;;;;18.10;4.60;;;9.40;99.60;;;;;;5052352;28;20110;-75
2022/10/12 07:41:35;;;;;;;12.93;3.90;;;9.50;99.60;;;;;;5051566;28;20052;-74
2022/10/12 07:44:01;;;;;;;11.35;3.50;;;9.60;99.70;;;;;;5050670;28;20431;-74
2022/10/12 07:46:26;;;;;;;10.77;3.30;;;9.70;99.60;;;;;;5051293;28;20044;-73
2022/10/12 07:48:52;;;;;;;16.48;5.13;;;9.70;99.50;;;;;;5051289;28;20021;-75
2022/10/12 07:51:18;;;;;;;11.32;3.00;;;9.80;99.40;;;;;;5049953;28;20026;-75
2022/10/12 07:53:44;;;;;;;14.55;3.42;;;9.80;99.30;;;;;;5051421;28;20459;-74
2022/10/12 07:56:14;;;;;;;16.73;3.60;;;9.90;99.50;;;;;;5051796;28;20064;-73
2022/10/12 07:58:41;;;;;;;10.40;3.33;;;10.00;99.10;;;;;;5051128;28;20379;-76
2022/10/12 08:01:08;;;;;;;18.25;4.10;;;10.10;99.10;;;;;;5050798;28;20462;-74
2022/10/12 08:03:35;;;;;;;15.63;4.07;;;10.20;99.00;;;;;;5066448;28;20058;-74
2022/10/12 08:06:08;;;;;;;12.80;4.07;;;10.20;99.00;;;;;;5051239;28;20039;-77
2022/10/12 08:08:34;;;;;;;11.30;4.00;;;10.30;99.00;;;;;;5066621;28;20060;-76
2022/10/12 08:11:00;;;;;;;18.58;3.72;;;10.40;99.00;;;;;;5051195;28;20076;-79
2022/10/12 08:13:26;;;;;;;13.52;3.95;;;10.50;99.00;;;;;;5050992;28;20489;-75
2022/10/12 08:15:52;;;;;;;14.60;3.40;;;10.60;98.80;;;;;;5050857;28;20067;-76
2022/10/12 08:18:17;;;;;;;17.02;3.58;;;10.60;98.80;;;;;;5051000;28;20032;-76
2022/10/12 08:20:44;;;;;;;12.93;3.20;;;10.70;98.70;;;;;;5066319;28;20079;-76
2022/10/12 08:23:10;;;;;;;9.27;3.05;;;10.70;98.70;;;;;;5051603;28;20033;-75
2022/10/12 08:25:36;;;;;;;13.80;3.45;;;10.80;98.70;;;;;;5051122;28;20033;-75
2022/10/12 08:28:06;;;;;;;16.33;3.78;;;10.90;98.60;;;;;;5051080;28;20025;-77
2022/10/12 08:30:32;;;;;;;16.27;3.63;;;11.00;98.60;;;;;;5050586;28;20213;-75
2022/10/12 08:32:58;;;;;;;10.30;3.45;;;11.20;98.70;;;;;;5050577;28;20029;-75
2022/10/12 08:35:24;;;;;;;12.57;3.80;;;11.30;98.50;;;;;;5056372;28;20094;-73
2022/10/12 08:37:50;;;;;;;14.73;3.97;;;11.70;98.60;;;;;;5050195;28;20078;-78
2022/10/12 08:40:23;;;;;;;10.75;3.60;;;12.20;98.80;;;;;;5066574;28;20024;-76
2022/10/12 08:43:05;;;;;;;16.80;4.57;;;12.60;98.80;;;;;;5050497;28;20116;-75
2022/10/12 08:45:52;;;;;;;29.10;9.55;;;13.30;98.80;;;;;;5066348;28;20362;-76
2022/10/12 08:48:25;;;;;;;16.33;4.90;;;13.70;98.00;;;;;;5066124;28;20029;-76
2022/10/12 08:51:01;;;;;;;13.45;3.33;;;14.20;97.70;;;;;;5050530;28;20407;-76
2022/10/12 08:53:30;;;;;;;10.20;2.72;;;14.80;97.60;;;;;;5051322;28;20063;-76
2022/10/12 08:55:57;;;;;;;15.52;3.10;;;15.40;98.00;;;;;;5066811;28;20082;-77
2022/10/12 08:58:36;;;;;;;12.07;2.42;;;16.00;96.80;;;;;;5066243;28;20384;-79
2022/10/12 09:01:20;;;;;;;10.75;3.38;;;16.50;94.90;;;;;;5050799;28;20095;-77
2022/10/12 09:03:52;;;;;;;14.07;2.67;;;17.10;93.70;;;;;;5050520;28;20037;-77
2022/10/12 09:06:22;;;;;;;13.13;4.05;;;17.80;93.10;;;;;;5066428;28;20029;-76
2022/10/12 09:08:51;;;;;;;14.75;4.63;;;18.60;92.30;;;;;;5050530;28;20037;-76
2022/10/12 09:11:19;;;;;;;10.73;2.83;;;19.40;90.00;;;;;;5050652;28;20125;-75
2022/10/12 09:13:56;;;;;;;16.83;2.97;;;20.20;88.10;;;;;;5066169;28;20032;-78
2022/10/12 09:16:26;;;;;;;13.15;4.25;;;20.90;84.40;;;;;;5050570;28;20039;-77
2022/10/12 09:18:56;;;;;;;10.98;3.67;;;21.40;81.40;;;;;;5066061;28;20049;-77
2022/10/12 09:21:25;;;;;;;11.18;2.50;;;21.80;81.50;;;;;;5050634;28;20451;-81
2022/10/12 09:23:53;;;;;;;12.63;2.28;;;22.40;81.00;;;;;;5066354;28;20478;-76
2022/10/12 09:26:40;;;;;;;12.52;2.28;;;22.80;79.70;;;;;;5050987;28;20443;-76
2022/10/12 09:29:26;;;;;;;13.63;3.13;;;23.10;76.80;;;;;;5049995;28;20075;-76
2022/10/12 09:32:01;;;;;;;6.80;2.00;;;23.60;76.40;;;;;;5050156;28;20475;-81
2022/10/12 09:34:27;;;;;;;9.05;2.45;;;23.80;77.20;;;;;;5051050;28;20102;-80
2022/10/12 09:36:54;;;;;;;11.55;2.80;;;23.70;72.30;;;;;;5050493;28;20038;-80
2022/10/12 09:39:29;;;;;;;9.93;2.90;;;23.70;70.30;;;;;;5050607;28;20029;-77
2022/10/12 09:41:55;;;;;;;13.57;2.83;;;24.30;71.20;;;;;;5066252;28;20095;-77
2022/10/12 09:44:23;;;;;;;8.48;1.95;;;24.30;67.90;;;;;;5050648;28;20041;-81
2022/10/12 09:46:57;;;;;;;6.45;2.40;;;25.30;64.40;;;;;;5050623;28;20041;-81
2022/10/12 09:49:49;;;;;;;6.93;1.85;;;25.70;65.60;;;;;;5066014;28;20029;-80
2022/10/12 09:52:20;;;;;;;14.25;4.38;;;26.50;60.80;;;;;;5065604;28;20451;-77
2022/10/12 09:54:57;;;;;;;11.32;2.13;;;27.00;63.40;;;;;;5049842;28;20470;-74
2022/10/12 09:57:41;;;;;;;13.07;2.40;;;27.10;59.40;;;;;;5049661;28;20052;-76
2022/10/12 10:00:28;;;;;;;9.13;2.13;;;27.50;60.50;;;;;;5049957;28;20355;-78
2022/10/12 10:02:54;;;;;;;;;;;27.80;57.00;;;;;;5044115;28;20331;-75
2022/10/12 10:05:35;;;;;;;9.95;2.10;;;27.50;56.50;;;;;;5053997;28;19909;-77
2022/10/12 10:08:13;;;;;;;13.77;2.10;;;28.20;57.30;;;;;;5053876;28;20132;-79
2022/10/12 10:10:50;;;;;;;12.43;2.80;;;28.70;57.90;;;;;;5068645;28;20134;-77
2022/10/12 10:13:16;;;;;;;9.73;2.25;;;29.00;57.20;;;;;;5052900;28;20041;-77
2022/10/12 10:15:48;;;;;;;13.45;2.80;;;28.50;52.20;;;;;;5052958;28;20102;-80
2022/10/12 10:18:34;;;;;;;9.07;2.30;;;28.60;54.00;;;;;;5053311;28;20318;-84
2022/10/12 10:21:02;;;;;;;13.07;2.40;;;28.90;55.40;;;;;;5053248;28;20112;-81
2022/10/12 10:23:49;;;;;;;9.10;2.10;;;29.20;51.70;;;;;;5068519;28;20359;-80
2022/10/12 10:26:18;;;;;;;11.82;2.80;;;29.30;52.60;;;;;;5053304;28;20446;-79
2022/10/12 10:28:45;;;;;;;9.38;2.15;;;29.30;50.10;;;;;;5052700;28;20029;-77
2022/10/12 10:31:20;;;;;;;15.15;2.40;;;29.50;51.90;;;;;;5052978;28;20029;-77
2022/10/12 10:34:08;;;;;;;17.35;8.88;;;29.70;51.10;;;;;;5052625;28;20101;-78
2022/10/12 10:36:43;;;;;;;12.43;2.78;;;29.80;49.70;;;;;;5068602;28;20041;-78
2022/10/12 10:39:29;;;;;;;11.70;2.30;;;30.10;49.20;;;;;;5053054;28;20025;-77
2022/10/12 10:42:07;;;;;;;7.18;2.10;;;30.60;48.10;;;;;;5052512;28;20544;-78
2022/10/12 10:44:35;;;;;;;10.88;2.55;;;29.60;50.70;;;;;;5052689;28;20226;-77
2022/10/12 10:47:11;;;;;;;;;;;30.10;48.40;;;;;;5053248;28;20029;-78
2022/10/12 10:49:44;;;;;;;9.10;1.65;;;30.20;47.50;;;;;;5052140;28;19970;-77
2022/10/12 10:52:30;;;;;;;9.10;2.22;;;30.10;47.60;;;;;;5052396;28;20029;-76
2022/10/12 10:55:20;;;;;;;8.70;2.17;;;29.80;47.00;;;;;;5052223;28;20048;-75
2022/10/12 10:57:56;;;;;;;11.85;2.65;;;30.10;48.00;;;;;;5052160;28;20044;-77
2022/10/12 11:00:22;;;;;;;10.48;2.38;;;29.40;47.60;;;;;;5052227;28;20371;-77
2022/10/12 11:02:55;;;;;;;11.35;2.10;;;29.50;46.90;;;;;;5051983;28;20090;-77
2022/10/12 11:05:37;;;;;;;9.82;1.92;;;30.10;49.80;;;;;;5052894;28;20112;-77
2022/10/12 11:08:14;;;;;;;10.52;2.05;;;29.80;46.60;;;;;;5052211;28;20106;-76
2022/10/12 11:11:02;;;;;;;8.27;1.80;;;30.20;47.30;;;;;;5051860;28;20029;-77
2022/10/12 11:13:52;;;;;;;9.27;2.10;;;29.90;45.90;;;;;;5050781;28;20056;-76
2022/10/12 11:16:33;;;;;;;6.85;1.70;;;29.60;45.40;;;;;;5067403;28;20049;-76
2022/10/12 11:19:10;;;;;;;8.48;2.00;;;29.00;46.30;;;;;;5051898;28;20043;-78
2022/10/12 11:21:46;;;;;;;11.95;2.10;;;28.90;46.60;;;;;;5051951;28;20044;-80
2022/10/12 11:24:16;;;;;;;10.27;1.83;;;28.70;47.50;;;;;;5052140;28;20025;-77
2022/10/12 11:27:01;;;;;;;10.15;2.10;;;28.20;47.30;;;;;;5052031;28;20096;-76
2022/10/12 11:29:27;;;;;;;8.77;2.10;;;27.40;48.00;;;;;;5051542;28;20032;-78
2022/10/12 11:32:02;;;;;;;7.28;1.77;;;27.10;48.40;;;;;;5052125;28;20096;-77
2022/10/12 11:34:35;;;;;;;7.30;1.90;;;26.30;49.20;;;;;;5051540;28;20048;-78
2022/10/12 11:37:03;;;;;;;8.73;2.60;;;25.30;50.90;;;;;;5067116;28;20025;-77
2022/10/12 11:39:33;;;;;;;14.93;1.80;;;24.40;51.40;;;;;;5051460;28;20090;-78
2022/10/12 11:42:01;;;;;;;8.75;1.73;;;24.30;52.60;;;;;;5051375;28;20079;-77
2022/10/12 11:44:40;;;;;;;13.90;2.50;;;24.00;52.80;;;;;;5051000;28;20226;-76
2022/10/12 11:47:29;;;;;;;10.35;2.03;;;23.40;53.80;;;;;;5066883;28;20021;-76
2022/10/12 11:50:01;;;;;;;8.35;1.65;;;23.30;54.00;;;;;;5051222;28;20131;-75
2022/10/12 11:52:39;;;;;;;8.40;1.80;;;23.00;54.40;;;;;;5050975;28;20037;-77
2022/10/12 11:55:47;;;;;;;9.45;2.13;;;22.80;55.60;;;;;;5050792;28;20545;-77
2022/10/12 11:58:26;;;;;;;18.50;2.55;;;22.50;55.50;;;;;;5051048;28;20029;-76
2022/10/12 12:01:01;;;;;;;8.85;1.85;;;22.40;55.50;;;;;;5050850;28;20040;-78
2022/10/12 12:03:45;;;;;;;6.57;1.52;;;22.20;55.70;;;;;;5066368;28;20325;-77
2022/10/12 12:06:29;;;;;;;11.73;2.47;;;22.00;56.50;;;;;;5050843;28;20078;-77
2022/10/12 12:08:55;;;;;;;10.10;2.20;;;22.10;56.80;;;;;;5066063;28;20450;-75
2022/10/12 12:11:26;;;;;;;10.32;1.90;;;22.00;56.50;;;;;;5066578;28;20076;-78
2022/10/12 12:14:20;;;;;;;7.97;1.80;;;21.90;56.30;;;;;;5051450;28;20033;-77
2022/10/12 12:16:47;;;;;;;6.05;1.73;;;21.70;56.70;;;;;;5050691;28;20056;-77
2022/10/12 12:19:37;;;;;;;4.53;1.65;;;21.60;57.00;;;;;;5050836;28;20073;-79
2022/10/12 12:22:27;;;;;;;6.20;1.73;;;21.50;57.60;;;;;;5066219;28;20029;-78
2022/10/12 12:25:09;;;;;;;5.88;1.55;;;21.20;57.30;;;;;;5050656;28;20445;-77
2022/10/12 12:27:48;;;;;;;12.75;2.03;;;21.20;57.60;;;;;;5065969;28;20040;-77
2022/10/12 12:30:16;;;;;;;8.82;1.60;;;21.00;57.90;;;;;;5050732;28;20116;-77
2022/10/12 12:32:46;;;;;;;12.68;2.72;;;21.00;58.70;;;;;;5050686;28;20059;-77
2022/10/12 12:35:33;;;;;;;9.48;1.85;;;20.90;59.10;;;;;;5066591;28;20451;-77
2022/10/12 12:38:00;;;;;;;13.93;2.53;;;20.80;59.30;;;;;;5050641;28;20029;-78
2022/10/12 12:40:26;;;;;;;9.55;2.08;;;20.90;58.50;;;;;;5066061;28;20344;-77
2022/10/12 12:42:52;;;;;;;15.85;4.00;;;20.90;58.00;;;;;;5050725;28;20094;-77
2022/10/12 12:45:31;;;;;;;9.10;2.17;;;20.80;58.20;;;;;;5050271;28;20033;-74
2022/10/12 12:47:56;;;;;;;5.43;1.50;;;20.80;58.40;;;;;;5065872;28;20447;-74
2022/10/12 12:50:36;;;;;;;7.68;1.77;;;20.90;57.80;;;;;;5050840;28;20152;-77
2022/10/12 12:53:27;;;;;;;10.68;1.88;;;20.70;57.90;;;;;;5050932;28;20021;-77
2022/10/12 12:56:48;;;;;;;8.15;1.52;;;20.60;57.90;;;;;;5047654;28;20458;-76
2022/10/12 12:59:45;;;;;;;7.80;1.48;;;20.60;57.40;;;;;;5008583;28;20089;-76
2022/10/12 13:02:41;;;;;;;7.95;2.10;;;20.70;57.40;;;;;;5049065;28;20048;-76
2022/10/12 13:05:26;;;;;;;6.72;1.58;;;20.40;57.50;;;;;;5050174;28;20033;-76
2022/10/12 13:08:08;;;;;;;6.15;1.80;;;20.30;57.80;;;;;;5065971;28;20033;-75